sensor_id;sensor_type;location;lat;lon;timestamp;P1;durP1;ratioP1;P2;durP2;ratioP2
14665;SDS011;7420;53.574;10.040;2023-07-30T00:02:18;4.40;;;4.20;;
14665;SDS011;7420;53.574;10.040;2023-07-30T00:04:43;4.38;;;4.18;;
14665;SDS011;7420;53.574;10.040;2023-07-30T00:07:09;4.20;;;4.00;;
14665;SDS011;7420;53.574;10.040;2023-07-30T00:09:35;4.40;;;4.20;;
14665;SDS011;7420;53.574;10.040;2023-07-30T00:12:00;4.40;;;4.20;;
14665;SDS011;7420;53.574;10.040;2023-07-30T00:14:27;4.30;;;4.10;;
14665;SDS011;7420;53.574;10.040;2023-07-30T00:16:52;4.38;;;4.18;;
14665;SDS011;7420;53.574;10.040;2023-07-30T00:19:18;4.20;;;4.00;;
14665;SDS011;7420;53.574;10.040;2023-07-30T00:21:43;4.30;;;4.10;;
14665;SDS011;7420;53.574;10.040;2023-07-30T00:24:11;4.00;;;3.90;;
14665;SDS011;7420;53.574;10.040;2023-07-30T00:26:36;4.43;;;4.22;;
14665;SDS011;7420;53.574;10.040;2023-07-30T00:29:03;4.05;;;3.95;;
14665;SDS011;7420;53.574;10.040;2023-07-30T00:31:28;4.00;;;3.90;;
14665;SDS011;7420;53.574;10.040;2023-07-30T00:33:54;4.30;;;4.10;;
14665;SDS011;7420;53.574;10.040;2023-07-30T00:36:19;4.20;;;4.00;;
14665;SDS011;7420;53.574;10.040;2023-07-30T00:38:44;4.30;;;4.10;;
14665;SDS011;7420;53.574;10.040;2023-07-30T00:41:10;4.43;;;4.22;;
14665;SDS011;7420;53.574;10.040;2023-07-30T00:43:35;4.30;;;4.10;;
14665;SDS011;7420;53.574;10.040;2023-07-30T00:46:00;4.30;;;4.10;;
14665;SDS011;7420;53.574;10.040;2023-07-30T00:48:26;4.20;;;4.00;;
14665;SDS011;7420;53.574;10.040;2023-07-30T00:50:52;4.00;;;3.90;;
14665;SDS011;7420;53.574;10.040;2023-07-30T00:53:18;4.20;;;4.00;;
14665;SDS011;7420;53.574;10.040;2023-07-30T00:55:46;4.20;;;4.00;;
14665;SDS011;7420;53.574;10.040;2023-07-30T00:58:12;4.20;;;4.00;;
14665;SDS011;7420;53.574;10.040;2023-07-30T01:00:37;4.30;;;4.10;;
14665;SDS011;7420;53.574;10.040;2023-07-30T01:03:03;4.55;;;4.35;;
14665;SDS011;7420;53.574;10.040;2023-07-30T01:05:29;4.30;;;4.10;;
14665;SDS011;7420;53.574;10.040;2023-07-30T01:07:54;4.10;;;4.00;;
14665;SDS011;7420;53.574;10.040;2023-07-30T01:10:19;4.30;;;4.10;;
14665;SDS011;7420;53.574;10.040;2023-07-30T01:12:46;4.30;;;4.10;;
14665;SDS011;7420;53.574;10.040;2023-07-30T01:15:12;4.40;;;4.20;;
14665;SDS011;7420;53.574;10.040;2023-07-30T01:17:38;4.43;;;4.22;;
14665;SDS011;7420;53.574;10.040;2023-07-30T01:20:04;4.40;;;4.20;;
14665;SDS011;7420;53.574;10.040;2023-07-30T01:22:50;4.30;;;4.10;;
14665;SDS011;7420;53.574;10.040;2023-07-30T01:25:15;4.50;;;4.30;;
14665;SDS011;7420;53.574;10.040;2023-07-30T01:27:44;4.47;;;4.28;;
14665;SDS011;7420;53.574;10.040;2023-07-30T01:30:17;4.30;;;4.10;;
14665;SDS011;7420;53.574;10.040;2023-07-30T01:32:48;4.32;;;4.13;;
14665;SDS011;7420;53.574;10.040;2023-07-30T01:35:15;4.40;;;4.20;;
14665;SDS011;7420;53.574;10.040;2023-07-30T01:37:41;4.40;;;4.20;;
14665;SDS011;7420;53.574;10.040;2023-07-30T01:40:07;4.40;;;4.20;;
14665;SDS011;7420;53.574;10.040;2023-07-30T01:42:34;4.30;;;4.10;;
14665;SDS011;7420;53.574;10.040;2023-07-30T01:44:59;4.38;;;4.18;;
14665;SDS011;7420;53.574;10.040;2023-07-30T01:47:25;4.30;;;4.10;;
14665;SDS011;7420;53.574;10.040;2023-07-30T01:49:50;4.45;;;4.25;;
14665;SDS011;7420;53.574;10.040;2023-07-30T01:52:15;4.45;;;4.25;;
14665;SDS011;7420;53.574;10.040;2023-07-30T01:54:41;4.50;;;4.30;;
14665;SDS011;7420;53.574;10.040;2023-07-30T01:57:07;4.30;;;4.10;;
14665;SDS011;7420;53.574;10.040;2023-07-30T01:59:32;4.38;;;4.18;;
14665;SDS011;7420;53.574;10.040;2023-07-30T02:01:58;4.60;;;4.40;;
14665;SDS011;7420;53.574;10.040;2023-07-30T02:04:23;4.40;;;4.20;;
14665;SDS011;7420;53.574;10.040;2023-07-30T02:06:48;4.30;;;4.10;;
14665;SDS011;7420;53.574;10.040;2023-07-30T02:09:14;4.32;;;4.13;;
14665;SDS011;7420;53.574;10.040;2023-07-30T02:11:39;4.60;;;4.40;;
14665;SDS011;7420;53.574;10.040;2023-07-30T02:14:04;4.30;;;4.10;;
14665;SDS011;7420;53.574;10.040;2023-07-30T02:16:30;4.30;;;4.10;;
14665;SDS011;7420;53.574;10.040;2023-07-30T02:18:55;4.30;;;4.10;;
14665;SDS011;7420;53.574;10.040;2023-07-30T02:21:20;4.65;;;4.45;;
14665;SDS011;7420;53.574;10.040;2023-07-30T02:23:46;4.40;;;4.20;;
14665;SDS011;7420;53.574;10.040;2023-07-30T02:26:11;4.43;;;4.22;;
14665;SDS011;7420;53.574;10.040;2023-07-30T02:28:36;4.60;;;4.40;;
14665;SDS011;7420;53.574;10.040;2023-07-30T02:31:02;4.50;;;4.30;;
14665;SDS011;7420;53.574;10.040;2023-07-30T02:33:27;4.30;;;4.10;;
14665;SDS011;7420;53.574;10.040;2023-07-30T02:35:52;4.40;;;4.20;;
14665;SDS011;7420;53.574;10.040;2023-07-30T02:38:18;4.50;;;4.30;;
14665;SDS011;7420;53.574;10.040;2023-07-30T02:40:43;4.50;;;4.30;;
14665;SDS011;7420;53.574;10.040;2023-07-30T02:43:08;4.40;;;4.20;;
14665;SDS011;7420;53.574;10.040;2023-07-30T02:45:34;4.50;;;4.30;;
14665;SDS011;7420;53.574;10.040;2023-07-30T02:47:59;4.30;;;4.10;;
14665;SDS011;7420;53.574;10.040;2023-07-30T02:50:24;4.65;;;4.45;;
14665;SDS011;7420;53.574;10.040;2023-07-30T02:52:50;4.40;;;4.20;;
14665;SDS011;7420;53.574;10.040;2023-07-30T02:55:15;4.68;;;4.47;;
14665;SDS011;7420;53.574;10.040;2023-07-30T02:57:41;4.40;;;4.20;;
14665;SDS011;7420;53.574;10.040;2023-07-30T03:00:07;4.50;;;4.30;;
14665;SDS011;7420;53.574;10.040;2023-07-30T03:02:36;4.50;;;4.30;;
14665;SDS011;7420;53.574;10.040;2023-07-30T03:05:01;4.30;;;4.10;;
14665;SDS011;7420;53.574;10.040;2023-07-30T03:07:27;4.57;;;4.38;;
14665;SDS011;7420;53.574;10.040;2023-07-30T03:09:52;4.70;;;4.50;;
14665;SDS011;7420;53.574;10.040;2023-07-30T03:12:18;4.40;;;4.20;;
14665;SDS011;7420;53.574;10.040;2023-07-30T03:14:43;4.50;;;4.30;;
14665;SDS011;7420;53.574;10.040;2023-07-30T03:17:08;4.40;;;4.20;;
14665;SDS011;7420;53.574;10.040;2023-07-30T03:19:34;4.50;;;4.30;;
14665;SDS011;7420;53.574;10.040;2023-07-30T03:21:59;4.40;;;4.20;;
14665;SDS011;7420;53.574;10.040;2023-07-30T03:24:24;4.40;;;4.20;;
14665;SDS011;7420;53.574;10.040;2023-07-30T03:26:50;4.40;;;4.20;;
14665;SDS011;7420;53.574;10.040;2023-07-30T03:29:15;4.50;;;4.30;;
14665;SDS011;7420;53.574;10.040;2023-07-30T03:31:41;4.40;;;4.20;;
14665;SDS011;7420;53.574;10.040;2023-07-30T03:34:06;4.40;;;4.20;;
14665;SDS011;7420;53.574;10.040;2023-07-30T03:36:32;4.45;;;4.25;;
14665;SDS011;7420;53.574;10.040;2023-07-30T03:38:57;4.50;;;4.30;;
14665;SDS011;7420;53.574;10.040;2023-07-30T03:41:22;4.70;;;4.50;;
14665;SDS011;7420;53.574;10.040;2023-07-30T03:43:48;4.30;;;4.10;;
14665;SDS011;7420;53.574;10.040;2023-07-30T03:46:13;4.80;;;4.60;;
14665;SDS011;7420;53.574;10.040;2023-07-30T03:48:39;4.60;;;4.40;;
14665;SDS011;7420;53.574;10.040;2023-07-30T03:51:04;4.45;;;4.25;;
14665;SDS011;7420;53.574;10.040;2023-07-30T03:53:32;4.60;;;4.40;;
14665;SDS011;7420;53.574;10.040;2023-07-30T03:55:57;4.50;;;4.30;;
14665;SDS011;7420;53.574;10.040;2023-07-30T03:58:22;4.50;;;4.30;;
14665;SDS011;7420;53.574;10.040;2023-07-30T04:00:48;4.60;;;4.40;;
14665;SDS011;7420;53.574;10.040;2023-07-30T04:03:13;4.30;;;4.10;;
14665;SDS011;7420;53.574;10.040;2023-07-30T04:05:39;4.50;;;4.30;;
14665;SDS011;7420;53.574;10.040;2023-07-30T04:08:04;4.40;;;4.20;;
14665;SDS011;7420;53.574;10.040;2023-07-30T04:10:29;4.43;;;4.22;;
14665;SDS011;7420;53.574;10.040;2023-07-30T04:12:55;4.40;;;4.20;;
14665;SDS011;7420;53.574;10.040;2023-07-30T04:15:20;4.57;;;4.38;;
14665;SDS011;7420;53.574;10.040;2023-07-30T04:17:45;4.80;;;4.60;;
14665;SDS011;7420;53.574;10.040;2023-07-30T04:20:11;4.50;;;4.30;;
14665;SDS011;7420;53.574;10.040;2023-07-30T04:22:36;4.45;;;4.25;;
14665;SDS011;7420;53.574;10.040;2023-07-30T04:25:02;4.60;;;4.40;;
14665;SDS011;7420;53.574;10.040;2023-07-30T04:27:27;4.50;;;4.30;;
14665;SDS011;7420;53.574;10.040;2023-07-30T04:29:53;4.30;;;4.10;;
14665;SDS011;7420;53.574;10.040;2023-07-30T04:32:18;4.53;;;4.32;;
14665;SDS011;7420;53.574;10.040;2023-07-30T04:34:43;4.50;;;4.30;;
14665;SDS011;7420;53.574;10.040;2023-07-30T04:37:09;4.50;;;4.30;;
14665;SDS011;7420;53.574;10.040;2023-07-30T04:39:35;4.50;;;4.30;;
14665;SDS011;7420;53.574;10.040;2023-07-30T04:42:00;4.40;;;4.20;;
14665;SDS011;7420;53.574;10.040;2023-07-30T04:44:26;4.60;;;4.40;;
14665;SDS011;7420;53.574;10.040;2023-07-30T04:46:51;4.50;;;4.30;;
14665;SDS011;7420;53.574;10.040;2023-07-30T04:49:17;4.40;;;4.20;;
14665;SDS011;7420;53.574;10.040;2023-07-30T04:51:42;4.40;;;4.20;;
14665;SDS011;7420;53.574;10.040;2023-07-30T04:54:07;4.70;;;4.50;;
14665;SDS011;7420;53.574;10.040;2023-07-30T04:56:32;4.40;;;4.20;;
14665;SDS011;7420;53.574;10.040;2023-07-30T04:58:58;4.40;;;4.20;;
14665;SDS011;7420;53.574;10.040;2023-07-30T05:01:24;4.55;;;4.35;;
14665;SDS011;7420;53.574;10.040;2023-07-30T05:03:49;4.40;;;4.20;;
14665;SDS011;7420;53.574;10.040;2023-07-30T05:06:15;4.50;;;4.30;;
14665;SDS011;7420;53.574;10.040;2023-07-30T05:08:40;4.40;;;4.20;;
14665;SDS011;7420;53.574;10.040;2023-07-30T05:11:05;4.40;;;4.20;;
14665;SDS011;7420;53.574;10.040;2023-07-30T05:13:31;4.30;;;4.10;;
14665;SDS011;7420;53.574;10.040;2023-07-30T05:15:56;4.40;;;4.20;;
14665;SDS011;7420;53.574;10.040;2023-07-30T05:18:21;4.40;;;4.20;;
14665;SDS011;7420;53.574;10.040;2023-07-30T05:20:47;4.40;;;4.20;;
14665;SDS011;7420;53.574;10.040;2023-07-30T05:23:12;4.57;;;4.38;;
14665;SDS011;7420;53.574;10.040;2023-07-30T05:25:37;4.30;;;4.10;;
14665;SDS011;7420;53.574;10.040;2023-07-30T05:28:03;4.30;;;4.10;;
14665;SDS011;7420;53.574;10.040;2023-07-30T05:30:28;4.40;;;4.20;;
14665;SDS011;7420;53.574;10.040;2023-07-30T05:32:53;4.50;;;4.30;;
14665;SDS011;7420;53.574;10.040;2023-07-30T05:35:19;4.40;;;4.20;;
14665;SDS011;7420;53.574;10.040;2023-07-30T05:37:44;4.30;;;4.10;;
14665;SDS011;7420;53.574;10.040;2023-07-30T05:40:09;4.30;;;4.10;;
14665;SDS011;7420;53.574;10.040;2023-07-30T05:42:35;4.40;;;4.20;;
14665;SDS011;7420;53.574;10.040;2023-07-30T05:45:00;4.50;;;4.30;;
14665;SDS011;7420;53.574;10.040;2023-07-30T05:47:26;4.68;;;4.47;;
14665;SDS011;7420;53.574;10.040;2023-07-30T05:49:51;4.50;;;4.30;;
14665;SDS011;7420;53.574;10.040;2023-07-30T05:52:16;4.70;;;4.50;;
14665;SDS011;7420;53.574;10.040;2023-07-30T05:54:42;4.60;;;4.40;;
14665;SDS011;7420;53.574;10.040;2023-07-30T05:57:27;4.53;;;4.32;;
14665;SDS011;7420;53.574;10.040;2023-07-30T05:59:53;4.57;;;4.38;;
14665;SDS011;7420;53.574;10.040;2023-07-30T06:02:18;4.43;;;4.22;;
14665;SDS011;7420;53.574;10.040;2023-07-30T06:04:43;4.40;;;4.20;;
14665;SDS011;7420;53.574;10.040;2023-07-30T06:07:09;4.40;;;4.20;;
14665;SDS011;7420;53.574;10.040;2023-07-30T06:09:35;4.32;;;4.13;;
14665;SDS011;7420;53.574;10.040;2023-07-30T06:12:01;4.40;;;4.20;;
14665;SDS011;7420;53.574;10.040;2023-07-30T06:14:26;4.40;;;4.20;;
14665;SDS011;7420;53.574;10.040;2023-07-30T06:16:52;4.30;;;4.10;;
14665;SDS011;7420;53.574;10.040;2023-07-30T06:19:18;4.70;;;4.50;;
14665;SDS011;7420;53.574;10.040;2023-07-30T06:21:43;4.57;;;4.38;;
14665;SDS011;7420;53.574;10.040;2023-07-30T06:24:09;4.53;;;4.32;;
14665;SDS011;7420;53.574;10.040;2023-07-30T06:26:34;4.50;;;4.30;;
14665;SDS011;7420;53.574;10.040;2023-07-30T06:29:00;4.30;;;4.10;;
14665;SDS011;7420;53.574;10.040;2023-07-30T06:31:25;4.43;;;4.22;;
14665;SDS011;7420;53.574;10.040;2023-07-30T06:33:50;4.30;;;4.10;;
14665;SDS011;7420;53.574;10.040;2023-07-30T06:36:16;4.40;;;4.20;;
14665;SDS011;7420;53.574;10.040;2023-07-30T06:38:41;4.40;;;4.20;;
14665;SDS011;7420;53.574;10.040;2023-07-30T06:41:06;4.32;;;4.13;;
14665;SDS011;7420;53.574;10.040;2023-07-30T06:43:32;4.50;;;4.30;;
14665;SDS011;7420;53.574;10.040;2023-07-30T06:45:57;4.30;;;4.10;;
14665;SDS011;7420;53.574;10.040;2023-07-30T06:48:23;4.50;;;4.30;;
14665;SDS011;7420;53.574;10.040;2023-07-30T06:50:48;4.60;;;4.40;;
14665;SDS011;7420;53.574;10.040;2023-07-30T06:53:13;4.47;;;4.28;;
14665;SDS011;7420;53.574;10.040;2023-07-30T06:55:39;4.30;;;4.10;;
14665;SDS011;7420;53.574;10.040;2023-07-30T06:58:04;4.40;;;4.20;;
14665;SDS011;7420;53.574;10.040;2023-07-30T07:00:30;4.30;;;4.10;;
14665;SDS011;7420;53.574;10.040;2023-07-30T07:02:55;4.30;;;4.10;;
14665;SDS011;7420;53.574;10.040;2023-07-30T07:05:21;4.40;;;4.20;;
14665;SDS011;7420;53.574;10.040;2023-07-30T07:07:46;4.30;;;4.10;;
14665;SDS011;7420;53.574;10.040;2023-07-30T07:10:12;4.30;;;4.10;;
14665;SDS011;7420;53.574;10.040;2023-07-30T07:12:38;4.20;;;4.00;;
14665;SDS011;7420;53.574;10.040;2023-07-30T07:15:04;4.22;;;4.03;;
14665;SDS011;7420;53.574;10.040;2023-07-30T07:17:30;4.30;;;4.10;;
14665;SDS011;7420;53.574;10.040;2023-07-30T07:19:56;4.30;;;4.13;;
14665;SDS011;7420;53.574;10.040;2023-07-30T07:22:22;4.30;;;4.10;;
14665;SDS011;7420;53.574;10.040;2023-07-30T07:24:48;4.10;;;4.00;;
14665;SDS011;7420;53.574;10.040;2023-07-30T07:27:13;4.00;;;3.90;;
14665;SDS011;7420;53.574;10.040;2023-07-30T07:29:38;4.20;;;4.00;;
14665;SDS011;7420;53.574;10.040;2023-07-30T07:32:04;4.30;;;4.10;;
14665;SDS011;7420;53.574;10.040;2023-07-30T07:34:30;4.00;;;3.90;;
14665;SDS011;7420;53.574;10.040;2023-07-30T07:36:55;4.30;;;4.10;;
14665;SDS011;7420;53.574;10.040;2023-07-30T07:39:20;4.30;;;4.10;;
14665;SDS011;7420;53.574;10.040;2023-07-30T07:41:46;4.10;;;4.00;;
14665;SDS011;7420;53.574;10.040;2023-07-30T07:44:11;4.20;;;4.00;;
14665;SDS011;7420;53.574;10.040;2023-07-30T07:46:36;4.00;;;3.90;;
14665;SDS011;7420;53.574;10.040;2023-07-30T07:49:02;4.00;;;3.90;;
14665;SDS011;7420;53.574;10.040;2023-07-30T07:51:27;4.20;;;4.00;;
14665;SDS011;7420;53.574;10.040;2023-07-30T07:53:52;4.30;;;4.10;;
14665;SDS011;7420;53.574;10.040;2023-07-30T07:56:18;4.20;;;4.00;;
14665;SDS011;7420;53.574;10.040;2023-07-30T07:58:43;4.50;;;4.30;;
14665;SDS011;7420;53.574;10.040;2023-07-30T08:01:08;4.10;;;4.00;;
14665;SDS011;7420;53.574;10.040;2023-07-30T08:03:34;4.20;;;4.00;;
14665;SDS011;7420;53.574;10.040;2023-07-30T08:05:59;4.20;;;4.00;;
14665;SDS011;7420;53.574;10.040;2023-07-30T08:08:25;4.00;;;3.90;;
14665;SDS011;7420;53.574;10.040;2023-07-30T08:10:51;4.20;;;4.00;;
14665;SDS011;7420;53.574;10.040;2023-07-30T08:13:17;4.30;;;4.10;;
14665;SDS011;7420;53.574;10.040;2023-07-30T08:15:42;4.07;;;3.97;;
14665;SDS011;7420;53.574;10.040;2023-07-30T08:18:07;4.00;;;3.90;;
14665;SDS011;7420;53.574;10.040;2023-07-30T08:20:33;4.00;;;3.90;;
14665;SDS011;7420;53.574;10.040;2023-07-30T08:22:58;3.97;;;3.88;;
14665;SDS011;7420;53.574;10.040;2023-07-30T08:25:23;4.18;;;4.00;;
14665;SDS011;7420;53.574;10.040;2023-07-30T08:27:49;4.20;;;4.00;;
14665;SDS011;7420;53.574;10.040;2023-07-30T08:30:14;4.00;;;3.90;;
14665;SDS011;7420;53.574;10.040;2023-07-30T08:32:40;3.90;;;3.80;;
14665;SDS011;7420;53.574;10.040;2023-07-30T08:35:06;4.07;;;3.97;;
14665;SDS011;7420;53.574;10.040;2023-07-30T08:37:32;4.00;;;3.90;;
14665;SDS011;7420;53.574;10.040;2023-07-30T08:39:58;3.80;;;3.70;;
14665;SDS011;7420;53.574;10.040;2023-07-30T08:42:23;4.00;;;3.90;;
14665;SDS011;7420;53.574;10.040;2023-07-30T08:44:49;3.95;;;3.85;;
14665;SDS011;7420;53.574;10.040;2023-07-30T08:47:14;3.90;;;3.80;;
14665;SDS011;7420;53.574;10.040;2023-07-30T08:49:40;3.90;;;3.80;;
14665;SDS011;7420;53.574;10.040;2023-07-30T08:52:08;3.90;;;3.80;;
14665;SDS011;7420;53.574;10.040;2023-07-30T08:54:34;4.20;;;4.00;;
14665;SDS011;7420;53.574;10.040;2023-07-30T08:57:01;4.00;;;3.90;;
14665;SDS011;7420;53.574;10.040;2023-07-30T08:59:27;3.80;;;3.70;;
14665;SDS011;7420;53.574;10.040;2023-07-30T09:01:58;4.07;;;3.97;;
14665;SDS011;7420;53.574;10.040;2023-07-30T09:04:44;4.18;;;4.00;;
14665;SDS011;7420;53.574;10.040;2023-07-30T09:07:13;4.20;;;4.00;;
14665;SDS011;7420;53.574;10.040;2023-07-30T09:09:38;4.00;;;3.90;;
14665;SDS011;7420;53.574;10.040;2023-07-30T09:12:05;4.05;;;3.95;;
14665;SDS011;7420;53.574;10.040;2023-07-30T09:14:38;4.20;;;4.00;;
14665;SDS011;7420;53.574;10.040;2023-07-30T09:17:03;3.90;;;3.80;;
14665;SDS011;7420;53.574;10.040;2023-07-30T09:19:29;4.00;;;3.90;;
14665;SDS011;7420;53.574;10.040;2023-07-30T09:21:59;3.92;;;3.83;;
14665;SDS011;7420;53.574;10.040;2023-07-30T09:24:28;3.90;;;3.80;;
14665;SDS011;7420;53.574;10.040;2023-07-30T09:26:53;4.10;;;4.00;;
14665;SDS011;7420;53.574;10.040;2023-07-30T09:29:19;3.90;;;3.80;;
14665;SDS011;7420;53.574;10.040;2023-07-30T09:31:48;3.90;;;3.80;;
14665;SDS011;7420;53.574;10.040;2023-07-30T09:34:17;4.00;;;3.90;;
14665;SDS011;7420;53.574;10.040;2023-07-30T09:36:46;4.00;;;3.90;;
14665;SDS011;7420;53.574;10.040;2023-07-30T09:39:22;3.97;;;3.88;;
14665;SDS011;7420;53.574;10.040;2023-07-30T09:41:49;3.80;;;3.70;;
14665;SDS011;7420;53.574;10.040;2023-07-30T09:44:17;3.90;;;3.80;;
14665;SDS011;7420;53.574;10.040;2023-07-30T09:46:44;3.90;;;3.80;;
14665;SDS011;7420;53.574;10.040;2023-07-30T09:49:11;3.80;;;3.70;;
14665;SDS011;7420;53.574;10.040;2023-07-30T09:51:39;3.90;;;3.80;;
14665;SDS011;7420;53.574;10.040;2023-07-30T09:54:09;3.97;;;3.88;;
14665;SDS011;7420;53.574;10.040;2023-07-30T09:56:36;3.90;;;3.80;;
14665;SDS011;7420;53.574;10.040;2023-07-30T09:59:06;3.80;;;3.70;;
14665;SDS011;7420;53.574;10.040;2023-07-30T10:01:33;3.78;;;3.67;;
14665;SDS011;7420;53.574;10.040;2023-07-30T10:04:10;3.80;;;3.70;;
14665;SDS011;7420;53.574;10.040;2023-07-30T10:06:38;3.83;;;3.72;;
14665;SDS011;7420;53.574;10.040;2023-07-30T10:09:06;3.90;;;3.80;;
14665;SDS011;7420;53.574;10.040;2023-07-30T10:11:34;3.90;;;3.80;;
14665;SDS011;7420;53.574;10.040;2023-07-30T10:14:01;3.80;;;3.70;;
14665;SDS011;7420;53.574;10.040;2023-07-30T10:16:27;3.80;;;3.70;;
14665;SDS011;7420;53.574;10.040;2023-07-30T10:18:57;3.80;;;3.70;;
14665;SDS011;7420;53.574;10.040;2023-07-30T10:21:23;4.00;;;3.90;;
14665;SDS011;7420;53.574;10.040;2023-07-30T10:24:01;3.83;;;3.72;;
14665;SDS011;7420;53.574;10.040;2023-07-30T10:26:31;3.80;;;3.70;;
14665;SDS011;7420;53.574;10.040;2023-07-30T10:29:20;4.00;;;3.90;;
14665;SDS011;7420;53.574;10.040;2023-07-30T10:31:55;4.00;;;3.90;;
14665;SDS011;7420;53.574;10.040;2023-07-30T10:34:22;4.00;;;3.90;;
14665;SDS011;7420;53.574;10.040;2023-07-30T10:36:51;3.90;;;3.80;;
14665;SDS011;7420;53.574;10.040;2023-07-30T10:39:35;3.88;;;3.78;;
14665;SDS011;7420;53.574;10.040;2023-07-30T10:42:01;4.00;;;3.90;;
14665;SDS011;7420;53.574;10.040;2023-07-30T10:46:59;3.90;;;3.80;;
14665;SDS011;7420;53.574;10.040;2023-07-30T10:49:26;4.00;;;3.90;;
14665;SDS011;7420;53.574;10.040;2023-07-30T10:51:52;4.00;;;3.90;;
14665;SDS011;7420;53.574;10.040;2023-07-30T10:54:18;3.83;;;3.72;;
14665;SDS011;7420;53.574;10.040;2023-07-30T10:56:44;4.00;;;3.90;;
14665;SDS011;7420;53.574;10.040;2023-07-30T10:59:10;3.97;;;3.88;;
14665;SDS011;7420;53.574;10.040;2023-07-30T11:01:39;3.97;;;3.88;;
14665;SDS011;7420;53.574;10.040;2023-07-30T11:04:13;3.90;;;3.80;;
14665;SDS011;7420;53.574;10.040;2023-07-30T11:06:44;4.15;;;3.97;;
14665;SDS011;7420;53.574;10.040;2023-07-30T11:09:20;3.97;;;3.88;;
14665;SDS011;7420;53.574;10.040;2023-07-30T11:11:48;4.00;;;3.90;;
14665;SDS011;7420;53.574;10.040;2023-07-30T11:14:15;3.90;;;3.80;;
14665;SDS011;7420;53.574;10.040;2023-07-30T11:16:53;3.90;;;3.80;;
14665;SDS011;7420;53.574;10.040;2023-07-30T11:19:19;3.75;;;3.65;;
14665;SDS011;7420;53.574;10.040;2023-07-30T11:21:48;3.90;;;3.80;;
14665;SDS011;7420;53.574;10.040;2023-07-30T11:24:14;3.60;;;3.50;;
14665;SDS011;7420;53.574;10.040;2023-07-30T11:26:40;3.60;;;3.50;;
14665;SDS011;7420;53.574;10.040;2023-07-30T11:31:41;3.80;;;3.70;;
14665;SDS011;7420;53.574;10.040;2023-07-30T11:34:08;3.70;;;3.60;;
14665;SDS011;7420;53.574;10.040;2023-07-30T11:36:33;3.88;;;3.78;;
14665;SDS011;7420;53.574;10.040;2023-07-30T11:38:59;3.78;;;3.67;;
14665;SDS011;7420;53.574;10.040;2023-07-30T11:41:25;3.80;;;3.70;;
14665;SDS011;7420;53.574;10.040;2023-07-30T11:43:50;3.72;;;3.63;;
14665;SDS011;7420;53.574;10.040;2023-07-30T11:46:17;3.78;;;3.67;;
14665;SDS011;7420;53.574;10.040;2023-07-30T11:49:13;3.80;;;3.70;;
14665;SDS011;7420;53.574;10.040;2023-07-30T11:51:41;3.85;;;3.75;;
14665;SDS011;7420;53.574;10.040;2023-07-30T11:54:07;3.70;;;3.60;;
14665;SDS011;7420;53.574;10.040;2023-07-30T11:56:33;3.60;;;3.50;;
14665;SDS011;7420;53.574;10.040;2023-07-30T11:59:00;3.70;;;3.60;;
14665;SDS011;7420;53.574;10.040;2023-07-30T12:01:32;3.70;;;3.60;;
14665;SDS011;7420;53.574;10.040;2023-07-30T12:04:03;3.80;;;3.70;;
14665;SDS011;7420;53.574;10.040;2023-07-30T12:06:40;3.70;;;3.60;;
14665;SDS011;7420;53.574;10.040;2023-07-30T12:09:13;3.70;;;3.60;;
14665;SDS011;7420;53.574;10.040;2023-07-30T12:11:44;3.65;;;3.55;;
14665;SDS011;7420;53.574;10.040;2023-07-30T12:14:11;3.83;;;3.72;;
14665;SDS011;7420;53.574;10.040;2023-07-30T12:16:36;3.70;;;3.60;;
14665;SDS011;7420;53.574;10.040;2023-07-30T12:19:02;3.80;;;3.70;;
14665;SDS011;7420;53.574;10.040;2023-07-30T12:21:28;3.70;;;3.60;;
14665;SDS011;7420;53.574;10.040;2023-07-30T12:23:53;3.80;;;3.70;;
14665;SDS011;7420;53.574;10.040;2023-07-30T12:26:18;3.70;;;3.60;;
14665;SDS011;7420;53.574;10.040;2023-07-30T12:28:44;3.70;;;3.60;;
14665;SDS011;7420;53.574;10.040;2023-07-30T12:31:09;3.75;;;3.65;;
14665;SDS011;7420;53.574;10.040;2023-07-30T12:33:34;3.60;;;3.50;;
14665;SDS011;7420;53.574;10.040;2023-07-30T12:36:00;3.80;;;3.70;;
14665;SDS011;7420;53.574;10.040;2023-07-30T12:38:25;3.70;;;3.60;;
14665;SDS011;7420;53.574;10.040;2023-07-30T12:40:51;3.58;;;3.47;;
14665;SDS011;7420;53.574;10.040;2023-07-30T12:43:16;3.60;;;3.50;;
14665;SDS011;7420;53.574;10.040;2023-07-30T12:45:44;3.58;;;3.47;;
14665;SDS011;7420;53.574;10.040;2023-07-30T12:48:09;3.70;;;3.60;;
14665;SDS011;7420;53.574;10.040;2023-07-30T12:50:34;3.70;;;3.60;;
14665;SDS011;7420;53.574;10.040;2023-07-30T12:53:00;3.90;;;3.80;;
14665;SDS011;7420;53.574;10.040;2023-07-30T12:55:25;3.67;;;3.58;;
14665;SDS011;7420;53.574;10.040;2023-07-30T12:57:51;3.70;;;3.60;;
14665;SDS011;7420;53.574;10.040;2023-07-30T13:00:16;3.70;;;3.60;;
14665;SDS011;7420;53.574;10.040;2023-07-30T13:02:42;3.60;;;3.50;;
14665;SDS011;7420;53.574;10.040;2023-07-30T13:05:08;3.65;;;3.55;;
14665;SDS011;7420;53.574;10.040;2023-07-30T13:07:33;3.85;;;3.75;;
14665;SDS011;7420;53.574;10.040;2023-07-30T13:10:05;3.70;;;3.60;;
14665;SDS011;7420;53.574;10.040;2023-07-30T13:12:32;3.70;;;3.60;;
14665;SDS011;7420;53.574;10.040;2023-07-30T13:14:58;3.75;;;3.65;;
14665;SDS011;7420;53.574;10.040;2023-07-30T13:17:24;3.70;;;3.60;;
14665;SDS011;7420;53.574;10.040;2023-07-30T13:19:49;4.00;;;3.90;;
14665;SDS011;7420;53.574;10.040;2023-07-30T13:22:15;4.20;;;4.00;;
14665;SDS011;7420;53.574;10.040;2023-07-30T13:24:40;4.40;;;4.20;;
14665;SDS011;7420;53.574;10.040;2023-07-30T13:27:05;4.30;;;4.10;;
14665;SDS011;7420;53.574;10.040;2023-07-30T13:29:31;4.30;;;4.10;;
14665;SDS011;7420;53.574;10.040;2023-07-30T13:31:56;4.40;;;4.20;;
14665;SDS011;7420;53.574;10.040;2023-07-30T13:34:22;4.60;;;4.40;;
14665;SDS011;7420;53.574;10.040;2023-07-30T13:36:47;4.57;;;4.38;;
14665;SDS011;7420;53.574;10.040;2023-07-30T13:39:12;4.40;;;4.20;;
14665;SDS011;7420;53.574;10.040;2023-07-30T13:41:38;4.60;;;4.40;;
14665;SDS011;7420;53.574;10.040;2023-07-30T13:44:03;4.55;;;4.35;;
14665;SDS011;7420;53.574;10.040;2023-07-30T13:46:28;4.70;;;4.50;;
14665;SDS011;7420;53.574;10.040;2023-07-30T13:48:54;4.50;;;4.30;;
14665;SDS011;7420;53.574;10.040;2023-07-30T13:51:19;4.53;;;4.32;;
14665;SDS011;7420;53.574;10.040;2023-07-30T13:53:44;4.50;;;4.30;;
14665;SDS011;7420;53.574;10.040;2023-07-30T13:56:10;4.50;;;4.30;;
14665;SDS011;7420;53.574;10.040;2023-07-30T13:58:35;4.40;;;4.20;;
14665;SDS011;7420;53.574;10.040;2023-07-30T14:01:00;4.60;;;4.40;;
14665;SDS011;7420;53.574;10.040;2023-07-30T14:03:26;4.60;;;4.40;;
14665;SDS011;7420;53.574;10.040;2023-07-30T14:05:51;4.60;;;4.40;;
14665;SDS011;7420;53.574;10.040;2023-07-30T14:08:16;4.60;;;4.40;;
14665;SDS011;7420;53.574;10.040;2023-07-30T14:10:42;4.50;;;4.30;;
14665;SDS011;7420;53.574;10.040;2023-07-30T14:13:07;4.45;;;4.25;;
14665;SDS011;7420;53.574;10.040;2023-07-30T14:15:32;4.50;;;4.30;;
14665;SDS011;7420;53.574;10.040;2023-07-30T14:17:58;4.20;;;4.00;;
14665;SDS011;7420;53.574;10.040;2023-07-30T14:20:23;4.03;;;3.90;;
14665;SDS011;7420;53.574;10.040;2023-07-30T14:22:49;4.30;;;4.10;;
14665;SDS011;7420;53.574;10.040;2023-07-30T14:25:14;4.05;;;3.95;;
14665;SDS011;7420;53.574;10.040;2023-07-30T14:27:40;4.15;;;3.97;;
14665;SDS011;7420;53.574;10.040;2023-07-30T14:30:06;3.80;;;3.70;;
14665;SDS011;7420;53.574;10.040;2023-07-30T14:32:31;3.80;;;3.70;;
14665;SDS011;7420;53.574;10.040;2023-07-30T14:34:57;3.90;;;3.80;;
14665;SDS011;7420;53.574;10.040;2023-07-30T14:37:22;3.90;;;3.80;;
14665;SDS011;7420;53.574;10.040;2023-07-30T14:39:47;3.70;;;3.60;;
14665;SDS011;7420;53.574;10.040;2023-07-30T14:42:13;3.90;;;3.80;;
14665;SDS011;7420;53.574;10.040;2023-07-30T14:44:38;3.70;;;3.60;;
14665;SDS011;7420;53.574;10.040;2023-07-30T14:47:04;3.80;;;3.70;;
14665;SDS011;7420;53.574;10.040;2023-07-30T14:49:30;3.75;;;3.65;;